Iuka, KY

1:30 AM CDT on July 24, 2016 (GMT -0500)
Calvert City | | Change Station
Active Advisory: Excessive Heat Warning

Elev 364 ft 37.02 °N, 88.33 °W | Updated 4 seconds ago

Clear
Clear
77.0 °F
Feels Like 78 °F
N
1.6
Wind Variable Wind from South
Gusts 3.1 mph

Today
High -- | Low -- °F
--% Chance of Precip.
Yesterday
High -- | Low -- °F
Precip. -- in
Pressure 29.97 in
Visibility 10.0 miles
Clouds Clear
Heat Index 78 °F
Dew Point 77 °F
Humidity 100%
Rainfall 0.00 in
Snow Depth Not available.
5:52 AM 8:06 PM
Waning Gibbous, 79% visible
METAR K5M9 240615Z AUTO 00000KT 10SM CLR 24/23 A2997 RMK AO2 T02410231
Pressure 29.97 in
Visibility 10.0 miles
Clouds Clear
Heat Index 78 °F
Dew Point 77 °F
Humidity 100%
Rainfall 0.00 in
Snow Depth Not available.
5:52 AM 8:06 PM
Waning Gibbous, 79% visible
METAR K5M9 240615Z AUTO 00000KT 10SM CLR 24/23 A2997 RMK AO2 T02410231

10-Day Weather Forecast

Almanac

Astronomy

Jul. 24, 2016 Rise Set
Actual Time
Civil Twilight
Nautical Twilight
Astronomical Twilight
Moon
Length of Visible Light
Length of Day
Tomorrow will be .
, % of the Moon is Illuminated

Today's Extremes

State Highs State Lows

Community

WunderPhotos

Upload Photos

1,927,038 photos uploaded!

WunderBlog® & News

Nearby

Air Quality

  Air Quality AQ Index Pollutant
Not available.

Snow Depth

Station Depth Elevation

Earthquake Activity

City Distance Mag. Time & Date
Minimum magnitude displayed is 2.5.

Coastal Water Temperatures

Place Temperature

Stations

Nearby Weather Stations

Station Location Temp. Windchill Dew Point Humidity Wind Precip. Elev Updated Type
                   

Watches & Warnings

Excessive Heat Warning
Issued: 1:31 PM CDT Jul. 23, 2016 – National Weather Service

... Excessive heat warning remains in effect until 8 PM CDT
Sunday...

* the combination of high temperatures in the mid to upper 90s
will combine with oppressive humidity to produce heat indices
from 105 to 110 degrees.

* A heat index of 105 degrees or higher is considered the level
at which the body becomes more susceptible to heat exhaustion
and heat stroke.

Precautionary/preparedness actions...

An excessive heat warning means that a prolonged period of
dangerously hot temperatures will occur. The combination of hot
temperatures and high humidity will combine to create a dangerous
situation in which heat illnesses are likely. Drink plenty of
fluids... stay in an air-conditioned room... stay out of the sun...
and check up on relatives and neighbors.

To reduce risk during outdoor work... the occupational safety and
health administration recommends scheduling frequent rest breaks
in shaded or air conditioned environments. Anyone overcome by
heat should be moved to a cool and shaded location. Heat stroke
is an emergency... call 9 1 1.